createdAt,value
2018-07-03T06:53:02.743Z,33.795166
2018-07-03T06:53:19.181Z,33.795166
2018-07-03T06:53:35.619Z,33.599854
2018-07-03T06:53:52.253Z,33.795166
2018-07-03T06:54:37.994Z,33.428955
2018-07-03T06:54:54.737Z,34.759521
2018-07-03T06:55:11.983Z,37.878418
2018-07-03T06:56:00.098Z,34.307861
2018-07-03T06:56:17.988Z,35.546875
2018-07-03T06:56:43.488Z,35.882568
2018-07-03T06:57:00.671Z,35.980225
2018-07-03T06:57:17.250Z,37.884521
2018-07-03T06:57:33.996Z,37.182617
2018-07-03T06:57:52.182Z,37.664795
2018-07-03T06:58:09.808Z,35.546875
2018-07-03T06:58:26.457Z,35.662842
2018-07-03T06:58:44.011Z,35.559082
2018-07-03T06:59:00.773Z,35.882568
2018-07-03T06:59:17.528Z,36.999512
2018-07-03T06:59:34.086Z,37.799072
2018-07-03T06:59:50.714Z,38.122559
2018-07-03T07:00:07.439Z,37.62207
2018-07-03T07:00:23.997Z,37.817383
2018-07-03T07:00:40.605Z,37.536621
2018-07-03T07:00:57.337Z,37.237549
2018-07-03T07:01:13.925Z,37.438965
2018-07-03T07:01:30.429Z,37.634277
2018-07-03T07:01:46.925Z,37.854004
2018-07-03T07:02:03.480Z,37.738037
2018-07-03T07:02:20.041Z,38.037109
2018-07-03T07:02:36.816Z,38.140869
2018-07-03T07:02:53.474Z,38.342285
2018-07-03T07:03:10.031Z,38.543701
2018-07-03T07:03:26.741Z,38.842773
2018-07-03T07:03:43.324Z,38.641357
2018-07-03T07:03:59.792Z,38.739014
2018-07-03T07:04:16.324Z,38.641357
2018-07-03T07:04:33.012Z,38.641357
2018-07-03T07:04:49.550Z,38.342285
2018-07-03T07:05:06.320Z,38.238525
2018-07-03T07:05:22.816Z,38.140869
2018-07-03T07:05:39.454Z,38.342285
2018-07-03T07:05:56.046Z,39.245605
2018-07-03T07:06:12.584Z,39.746094
2018-07-03T07:06:29.182Z,39.160156
2018-07-03T07:06:45.664Z,39.764404
2018-07-03T07:07:02.348Z,39.660645
2018-07-03T07:07:18.879Z,38.861084
2018-07-03T07:07:35.360Z,38.757324
2018-07-03T07:07:51.910Z,38.739014
2018-07-03T07:08:08.533Z,38.439941
2018-07-03T07:08:25.036Z,38.140869
2018-07-03T07:08:41.681Z,38.037109
2018-07-03T07:08:58.172Z,37.835693
2018-07-03T07:09:14.880Z,37.939453
2018-07-03T07:09:31.493Z,37.738037
2018-07-03T07:09:57.383Z,37.518311
2018-07-03T07:10:14.090Z,37.634277
2018-07-03T07:10:30.827Z,37.518311
2018-07-03T07:10:47.458Z,37.420654
2018-07-03T07:11:04.012Z,37.420654
2018-07-03T07:11:20.866Z,37.518311
2018-07-03T07:11:37.462Z,37.719727
2018-07-03T07:11:53.950Z,37.115479
2018-07-03T07:12:10.524Z,36.71875
2018-07-03T07:12:27.054Z,36.71875
2018-07-03T07:12:43.679Z,36.798096
2018-07-03T07:13:00.269Z,36.700439
2018-07-03T07:13:16.793Z,36.499023
2018-07-03T07:13:33.316Z,36.297607
2018-07-03T07:13:49.982Z,36.297607
2018-07-03T07:14:06.565Z,36.700439
2018-07-03T07:14:23.144Z,37.62207
2018-07-03T07:14:39.798Z,37.518311
2018-07-03T07:14:56.324Z,36.114502
2018-07-03T07:15:12.768Z,36.212158
2018-07-03T07:15:29.297Z,36.413574
2018-07-03T07:15:46.070Z,36.016846
2018-07-03T07:16:02.594Z,36.114502
2018-07-03T07:16:19.269Z,36.517334
2018-07-03T07:16:35.785Z,37.420654
2018-07-03T07:16:52.280Z,37.017822
2018-07-03T07:17:08.840Z,36.71875
2018-07-03T07:17:25.549Z,37.017822
2018-07-03T07:17:42.068Z,37.115479
2018-07-03T07:17:58.595Z,37.219238
2018-07-03T07:18:15.364Z,37.921143
2018-07-03T07:18:31.927Z,37.921143
2018-07-03T07:18:48.997Z,37.719727
2018-07-03T07:19:06.173Z,37.817383
2018-07-03T07:19:57.521Z,37.017822
2018-07-03T07:20:14.498Z,36.920166
2018-07-03T07:20:31.832Z,36.517334
2018-07-03T07:20:49.641Z,36.61499
2018-07-03T07:21:06.806Z,36.517334
2018-07-03T07:21:23.609Z,37.316895
2018-07-03T07:21:41.024Z,37.017822
2018-07-03T07:21:58.106Z,36.517334
2018-07-03T07:22:16.482Z,36.71875
2018-07-03T07:24:46.287Z,35.314941
2018-07-03T07:25:03.087Z,36.315918
2018-07-03T07:25:19.582Z,36.016846
2018-07-03T07:25:37.222Z,35.913086
2018-07-03T07:25:53.781Z,36.114502
2018-07-03T07:26:10.293Z,37.017822
2018-07-03T07:26:27.509Z,36.315918
2018-07-03T07:26:44.116Z,36.816406
2018-07-03T07:27:00.657Z,36.413574
2018-07-03T07:27:17.141Z,37.420654
2018-07-03T07:27:33.758Z,36.71875
2018-07-03T07:27:50.365Z,37.62207
2018-07-03T07:28:07.006Z,37.719727
2018-07-03T07:28:23.483Z,36.920166
2018-07-03T07:28:40.013Z,37.219238
2018-07-03T07:28:56.574Z,36.016846
2018-07-03T07:29:13.375Z,36.212158
2018-07-03T07:29:29.933Z,36.413574
2018-07-03T07:29:46.485Z,36.212158
2018-07-03T07:30:02.970Z,36.413574
2018-07-03T07:30:19.501Z,36.61499
2018-07-03T07:30:36.062Z,36.413574
2018-07-03T07:30:52.749Z,36.517334
2018-07-03T07:31:09.419Z,37.719727
2018-07-03T07:31:25.924Z,37.62207
2018-07-03T07:31:42.498Z,36.920166
2018-07-03T07:31:59.007Z,36.517334
2018-07-03T07:32:15.528Z,37.200928
2018-07-03T07:32:32.165Z,36.096191
2018-07-03T07:32:48.756Z,35.797119
2018-07-03T07:33:05.437Z,35.498047
2018-07-03T07:33:22.033Z,35.595703
2018-07-03T07:33:38.602Z,35.797119
2018-07-03T07:33:55.177Z,36.199951
2018-07-03T07:34:23.215Z,36.297607
2018-07-03T07:34:39.730Z,37.097168
2018-07-03T07:34:56.385Z,36.199951
2018-07-03T07:35:13.298Z,36.700439
2018-07-03T07:35:30.116Z,36.700439
2018-07-03T07:35:46.696Z,36.798096
2018-07-03T07:36:03.532Z,36.297607
2018-07-03T07:36:19.995Z,35.894775
2018-07-03T07:36:36.534Z,36.096191
2018-07-03T07:36:53.103Z,36.096191
2018-07-03T07:37:09.615Z,36.798096
2018-07-03T07:37:26.155Z,36.901855
2018-07-03T07:37:42.725Z,36.499023
2018-07-03T07:37:59.217Z,37.60376
2018-07-03T07:38:15.827Z,37.5
2018-07-03T07:38:32.351Z,36.578369
2018-07-03T07:38:48.890Z,36.279297
2018-07-03T07:39:05.459Z,36.279297
2018-07-03T07:39:21.947Z,35.864258
2018-07-03T07:39:38.507Z,35.760498
2018-07-03T07:39:55.050Z,36.16333
2018-07-03T07:40:11.552Z,36.865234
2018-07-03T07:40:28.145Z,36.779785
2018-07-03T07:40:44.693Z,35.864258
2018-07-03T07:41:01.244Z,35.778809
2018-07-03T07:41:17.828Z,35.980225
2018-07-03T07:41:34.344Z,36.181641
2018-07-03T07:41:50.869Z,35.778809
2018-07-03T07:42:07.406Z,36.480713
2018-07-03T07:42:23.930Z,36.077881
2018-07-03T07:42:40.487Z,36.682129
2018-07-03T07:43:05.066Z,36.077881
2018-07-03T07:43:21.609Z,36.383057
2018-07-03T07:43:38.148Z,36.883545
2018-07-03T07:43:54.715Z,36.279297
2018-07-03T07:44:11.204Z,36.077881
2018-07-03T07:44:27.738Z,36.181641
2018-07-03T07:44:44.226Z,36.181641
2018-07-03T07:45:00.782Z,36.383057
2018-07-03T07:45:17.366Z,36.480713
2018-07-03T07:45:33.927Z,36.779785
2018-07-03T07:45:50.436Z,36.883545
2018-07-03T07:46:06.923Z,36.981201
2018-07-03T07:46:23.543Z,37.280273
2018-07-03T07:46:40.060Z,37.084961
2018-07-03T07:46:56.567Z,36.981201
2018-07-03T07:47:13.133Z,36.981201
2018-07-03T07:47:29.715Z,37.182617
2018-07-03T07:47:46.284Z,37.280273
2018-07-03T07:48:02.864Z,37.084961
2018-07-03T07:48:19.375Z,36.682129
2018-07-03T07:48:36.122Z,36.779785
2018-07-03T07:48:52.675Z,36.279297
2018-07-03T07:49:09.185Z,36.779785
2018-07-03T07:49:25.750Z,36.663818
2018-07-03T07:49:42.656Z,36.663818
2018-07-03T07:49:58.808Z,37.182617
2018-07-03T07:50:15.359Z,37.365723
2018-07-03T07:50:31.886Z,37.164307
2018-07-03T07:50:49.382Z,36.962891
2018-07-03T07:51:05.936Z,37.463379
2018-07-03T07:51:22.511Z,37.365723
2018-07-03T07:51:39.003Z,37.268066
2018-07-03T07:51:55.478Z,36.962891
2018-07-03T07:52:11.992Z,37.268066
2018-07-03T07:52:28.467Z,36.962891
2018-07-03T07:52:44.998Z,37.06665
2018-07-03T07:53:01.467Z,36.865234
2018-07-03T07:53:17.994Z,36.962891
2018-07-03T07:53:34.489Z,36.865234
2018-07-03T07:53:51.098Z,36.663818
2018-07-03T07:54:07.697Z,36.16333
2018-07-03T07:54:24.267Z,36.260986
2018-07-03T07:54:40.776Z,35.961914
2018-07-03T07:54:57.310Z,36.065674
2018-07-03T07:55:13.852Z,35.760498
2018-07-03T07:55:30.317Z,35.662842
2018-07-03T07:55:46.850Z,36.16333
2018-07-03T07:56:03.381Z,36.16333
2018-07-03T07:56:19.886Z,36.364746
2018-07-03T07:56:37.404Z,36.248779
2018-07-03T07:56:53.918Z,35.943604
2018-07-03T07:57:10.458Z,35.943604
2018-07-03T07:57:27.109Z,35.931396
2018-07-03T07:57:43.564Z,36.328125
2018-07-03T07:58:00.110Z,36.444092
2018-07-03T07:58:16.682Z,36.248779
2018-07-03T07:58:33.156Z,36.047363
2018-07-03T07:58:49.792Z,36.94458
2018-07-03T07:59:06.315Z,35.546875
2018-07-03T08:00:37.671Z,35.046387
2018-07-03T08:00:54.175Z,35.943604
2018-07-03T08:01:10.713Z,35.845947
2018-07-03T08:01:27.238Z,36.047363
2018-07-03T08:01:43.749Z,35.644531
2018-07-03T08:02:00.300Z,35.961914
2018-07-03T08:02:16.823Z,36.14502
2018-07-03T08:02:33.362Z,35.961914
2018-07-03T08:02:49.848Z,35.845947
2018-07-03T08:03:07.980Z,35.845947
2018-07-03T08:03:25.667Z,35.546875
2018-07-03T08:03:42.729Z,35.443115
2018-07-03T08:03:59.197Z,35.430908
2018-07-03T08:04:15.775Z,35.430908
2018-07-03T08:04:32.438Z,35.229492
2018-07-03T08:04:49.068Z,35.125732
2018-07-03T08:05:05.611Z,35.125732
2018-07-03T08:05:22.212Z,35.626221
2018-07-03T08:05:38.760Z,35.931396
2018-07-03T08:05:55.361Z,35.931396
2018-07-03T08:06:11.792Z,36.431885
2018-07-03T08:06:28.281Z,35.931396
2018-07-03T08:06:44.782Z,35.827637
2018-07-03T08:07:01.378Z,35.028076
2018-07-03T08:07:17.892Z,34.741211
2018-07-03T08:07:34.433Z,34.240723
2018-07-03T08:07:50.936Z,34.04541
2018-07-03T08:08:07.484Z,33.94165
2018-07-03T08:08:24.070Z,34.442139
2018-07-03T08:08:40.644Z,34.545898
2018-07-03T08:08:57.157Z,35.443115
2018-07-03T08:09:13.710Z,36.547852
2018-07-03T08:09:30.265Z,36.14502
2018-07-03T08:09:46.735Z,35.626221
2018-07-03T08:10:03.309Z,35.72998
2018-07-03T08:10:19.832Z,35.827637
2018-07-03T08:10:36.362Z,35.430908
2018-07-03T08:10:52.850Z,35.430908
2018-07-03T08:11:09.396Z,35.827637
2018-07-03T08:11:26.010Z,34.509277
2018-07-03T08:11:42.927Z,34.509277
2018-07-03T08:11:59.452Z,34.80835
2018-07-03T08:12:16.000Z,34.710693
2018-07-03T08:12:32.540Z,34.411621
2018-07-03T08:12:49.050Z,34.509277
2018-07-03T08:13:05.562Z,34.008789
2018-07-03T08:13:22.167Z,34.210205
2018-07-03T08:13:38.553Z,34.509277
2018-07-03T08:13:55.092Z,34.594727
2018-07-03T08:14:11.620Z,34.710693
2018-07-03T08:14:28.127Z,34.613037
2018-07-03T08:14:44.681Z,34.613037
2018-07-03T08:15:01.211Z,34.112549
2018-07-03T08:15:17.716Z,34.008789
2018-07-03T08:15:42.050Z,33.911133
2018-07-03T08:16:07.468Z,33.813477
2018-07-03T08:16:23.963Z,33.892822
2018-07-03T08:16:40.566Z,33.892822
2018-07-03T08:16:57.042Z,33.496094
2018-07-03T08:17:13.586Z,33.813477
2018-07-03T08:17:30.181Z,33.911133
2018-07-03T08:17:47.432Z,33.911133
2018-07-03T08:18:04.064Z,34.112549
2018-07-03T08:18:20.570Z,33.813477
2018-07-03T08:18:37.067Z,33.892822
2018-07-03T08:18:53.722Z,34.393311
2018-07-03T08:19:10.301Z,34.594727
2018-07-03T08:19:26.720Z,35.095215
2018-07-03T08:19:43.309Z,34.411621
2018-07-03T08:19:59.920Z,33.410645
2018-07-03T08:20:16.430Z,33.111572
2018-07-03T08:20:33.013Z,33.111572
2018-07-03T08:20:49.607Z,34.411621
2018-07-03T08:21:06.106Z,33.709717
2018-07-03T08:21:22.613Z,34.112549
2018-07-03T08:21:39.150Z,34.112549
2018-07-03T08:21:55.686Z,34.307861
2018-07-03T08:22:12.397Z,34.411621
2018-07-03T08:22:28.894Z,35.211182
2018-07-03T08:22:45.397Z,34.710693
2018-07-03T08:23:01.876Z,34.112549
2018-07-03T08:23:18.363Z,34.112549
2018-07-03T08:23:34.863Z,33.996582
2018-07-03T08:23:51.400Z,33.795166
2018-07-03T08:24:07.900Z,33.69751
2018-07-03T08:24:24.425Z,34.191895
2018-07-03T08:24:40.940Z,33.892822
2018-07-03T08:24:57.438Z,33.294678
2018-07-03T08:25:13.975Z,33.496094
2018-07-03T08:25:30.517Z,33.795166
2018-07-03T08:25:46.983Z,33.892822
2018-07-03T08:26:03.584Z,33.795166
2018-07-03T08:26:20.053Z,33.892822
2018-07-03T08:26:36.670Z,32.995605
2018-07-03T08:26:53.081Z,32.794189
2018-07-03T08:27:09.577Z,32.592773
2018-07-03T08:27:26.054Z,32.891846
2018-07-03T08:27:42.655Z,33.093262
2018-07-03T08:27:59.242Z,33.392334
2018-07-03T08:28:15.814Z,33.392334
2018-07-03T08:28:32.331Z,33.197021
2018-07-03T08:28:48.882Z,33.496094
2018-07-03T08:29:05.364Z,33.59375
2018-07-03T08:29:21.883Z,33.69751
2018-07-03T08:29:38.392Z,33.892822
2018-07-03T08:29:54.891Z,34.295654
2018-07-03T08:30:11.411Z,33.892822
2018-07-03T08:30:28.977Z,34.191895
2018-07-03T08:30:45.427Z,33.892822
2018-07-03T08:31:01.916Z,34.094238
2018-07-03T08:31:18.414Z,33.996582
2018-07-03T08:31:34.929Z,34.893799
2018-07-03T08:31:51.463Z,34.49707
2018-07-03T08:32:08.015Z,34.094238
2018-07-03T08:32:24.847Z,34.191895
2018-07-03T08:32:42.112Z,34.094238
2018-07-03T08:32:58.603Z,34.094238
2018-07-03T08:33:15.215Z,34.295654
2018-07-03T08:33:31.761Z,34.692383
2018-07-03T08:33:48.287Z,34.692383
2018-07-03T08:34:04.867Z,34.594727
2018-07-03T08:34:21.324Z,34.796143
2018-07-03T08:34:37.805Z,34.594727
2018-07-03T08:34:54.421Z,34.594727
2018-07-03T08:35:10.993Z,34.295654
2018-07-03T08:35:27.521Z,33.59375
2018-07-03T08:35:44.164Z,34.191895
2018-07-03T08:36:00.694Z,33.795166
2018-07-03T08:36:17.212Z,33.392334
2018-07-03T08:36:33.772Z,33.59375
2018-07-03T08:36:50.318Z,34.191895
2018-07-03T08:37:06.922Z,33.392334
2018-07-03T08:37:23.494Z,33.093262
2018-07-03T08:37:40.085Z,32.592773
2018-07-03T08:37:56.727Z,32.397461
2018-07-03T08:38:13.079Z,32.592773
2018-07-03T08:38:29.721Z,32.495117
2018-07-03T08:38:46.203Z,32.696533
2018-07-03T08:39:02.721Z,33.294678
2018-07-03T08:39:19.256Z,33.496094
2018-07-03T08:39:35.766Z,33.392334
2018-07-03T08:39:52.296Z,33.093262
2018-07-03T08:40:08.820Z,33.294678
2018-07-03T08:40:25.402Z,33.392334
2018-07-03T08:40:42.301Z,33.294678
2018-07-03T08:40:58.808Z,32.696533
2018-07-03T08:41:15.349Z,32.592773
2018-07-03T08:41:31.957Z,32.696533
2018-07-03T08:41:48.461Z,32.580566
2018-07-03T08:42:04.998Z,33.197021
2018-07-03T08:42:21.463Z,33.294678
2018-07-03T08:42:38.012Z,33.081055
2018-07-03T08:42:54.565Z,32.781982
2018-07-03T08:43:19.012Z,32.781982
2018-07-03T08:43:35.515Z,33.081055
2018-07-03T08:43:52.037Z,33.081055
2018-07-03T08:44:09.561Z,33.59375
2018-07-03T08:44:26.048Z,33.996582
2018-07-03T08:44:42.559Z,33.69751
2018-07-03T08:44:59.051Z,33.892822
2018-07-03T08:45:15.544Z,33.892822
2018-07-03T08:45:32.174Z,33.496094
2018-07-03T08:45:48.752Z,33.294678
2018-07-03T08:46:05.384Z,32.891846
2018-07-03T08:46:21.905Z,32.696533
2018-07-03T08:46:38.468Z,32.794189
2018-07-03T08:46:54.968Z,32.891846
2018-07-03T08:47:11.456Z,33.294678
2018-07-03T08:47:27.966Z,33.392334
2018-07-03T08:47:44.512Z,33.496094
2018-07-03T08:48:01.057Z,33.392334
2018-07-03T08:48:17.491Z,34.094238
2018-07-03T08:48:42.215Z,33.392334
2018-07-03T08:49:06.583Z,33.197021
2018-07-03T08:49:23.113Z,33.081055
2018-07-03T08:49:39.621Z,32.781982
2018-07-03T08:49:56.191Z,32.781982
2018-07-03T08:50:12.641Z,32.580566
2018-07-03T08:50:30.195Z,32.879639
2018-07-03T08:50:46.726Z,33.581543
2018-07-03T08:51:04.808Z,33.978271
2018-07-03T08:51:21.353Z,33.978271
2018-07-03T08:51:45.913Z,35.076904
2018-07-03T08:52:02.355Z,34.47876
2018-07-03T08:52:18.851Z,33.880615
2018-07-03T08:52:35.432Z,33.978271
2018-07-03T08:52:52.004Z,34.075928
2018-07-03T08:53:08.727Z,34.277344
2018-07-03T08:53:25.296Z,33.581543
2018-07-03T08:53:41.812Z,33.679199
2018-07-03T08:54:06.203Z,33.880615
2018-07-03T08:54:22.730Z,33.978271
2018-07-03T08:54:39.237Z,34.777832
2018-07-03T08:54:55.852Z,34.277344
2018-07-03T08:55:12.380Z,34.875488
2018-07-03T08:55:28.886Z,35.27832
2018-07-03T08:55:45.466Z,33.880615
2018-07-03T08:56:01.923Z,33.581543
2018-07-03T08:56:18.494Z,33.978271
2018-07-03T08:56:35.140Z,33.380127
2018-07-03T08:56:51.648Z,33.178711
2018-07-03T08:57:08.132Z,32.977295
2018-07-03T08:57:24.652Z,32.879639
2018-07-03T08:57:41.173Z,32.476807
2018-07-03T08:57:57.714Z,32.879639
2018-07-03T08:58:14.271Z,33.26416
2018-07-03T08:58:30.795Z,33.660889
2018-07-03T08:58:47.374Z,34.063721
2018-07-03T08:59:03.869Z,33.764648
2018-07-03T08:59:20.392Z,33.465576
2018-07-03T08:59:36.895Z,33.1604
2018-07-03T08:59:53.413Z,32.763672
2018-07-03T09:00:09.953Z,32.4646
2018-07-03T09:00:26.538Z,33.1604
2018-07-03T09:00:43.056Z,33.062744
2018-07-03T09:00:59.541Z,33.1604
2018-07-03T09:01:16.072Z,33.062744
2018-07-03T09:01:32.540Z,32.763672
2018-07-03T09:01:49.098Z,32.763672
2018-07-03T09:02:05.735Z,32.647705
2018-07-03T09:02:22.195Z,32.348633
2018-07-03T09:02:38.688Z,32.348633
2018-07-03T09:02:55.177Z,32.446289
2018-07-03T09:03:11.744Z,32.849121
2018-07-03T09:03:28.216Z,32.849121
2018-07-03T09:03:44.732Z,31.951904
2018-07-03T09:04:01.329Z,32.049561
2018-07-03T09:04:17.772Z,32.049561
2018-07-03T09:04:34.303Z,31.848145
2018-07-03T09:04:50.791Z,31.750488
2018-07-03T09:05:07.288Z,32.049561
2018-07-03T09:05:24.011Z,32.550049
2018-07-03T09:05:40.544Z,31.750488
2018-07-03T09:05:57.263Z,31.048584
2018-07-03T09:06:13.867Z,30.651855
2018-07-03T09:06:31.372Z,30.950928
2018-07-03T09:06:47.943Z,31.152344
2018-07-03T09:07:04.455Z,31.347656
2018-07-03T09:07:20.968Z,31.451416
2018-07-03T09:07:37.492Z,31.451416
2018-07-03T09:07:53.989Z,31.549072
2018-07-03T09:08:10.547Z,32.049561
2018-07-03T09:08:27.106Z,32.250977
2018-07-03T09:08:43.622Z,32.446289
2018-07-03T09:09:00.107Z,33.843994
2018-07-03T09:09:16.747Z,33.447266
2018-07-03T09:09:33.207Z,33.428955
2018-07-03T09:09:49.757Z,33.428955
2018-07-03T09:10:06.237Z,33.233643
2018-07-03T09:10:22.778Z,33.117676
2018-07-03T09:10:39.348Z,33.117676
2018-07-03T09:10:55.841Z,32.91626
2018-07-03T09:11:12.378Z,32.714844
2018-07-03T09:11:28.984Z,33.312988
2018-07-03T09:11:45.504Z,34.509277
2018-07-03T09:12:01.939Z,34.130859
2018-07-03T09:12:18.463Z,32.531738
2018-07-03T09:12:43.026Z,32.330322
2018-07-03T09:12:59.549Z,32.13501
2018-07-03T09:13:16.027Z,32.232666
2018-07-03T09:13:32.538Z,32.531738
2018-07-03T09:13:49.021Z,32.13501
2018-07-03T09:14:05.548Z,32.232666
2018-07-03T09:14:22.103Z,32.13501
2018-07-03T09:14:38.596Z,31.634521
2018-07-03T09:14:55.146Z,31.433105
2018-07-03T09:15:11.650Z,31.335449
2018-07-03T09:15:28.239Z,31.433105
2018-07-03T09:15:44.777Z,31.933594
2018-07-03T09:16:01.296Z,31.433105
2018-07-03T09:16:17.773Z,31.536865
2018-07-03T09:16:34.359Z,31.335449
2018-07-03T09:16:50.887Z,31.134033
2018-07-03T09:17:07.438Z,31.237793
2018-07-03T09:17:24.919Z,31.036377
2018-07-03T09:17:41.553Z,31.134033
2018-07-03T09:17:58.103Z,31.036377
2018-07-03T09:18:14.672Z,31.433105
2018-07-03T09:18:31.290Z,31.536865
2018-07-03T09:18:47.968Z,31.335449
2018-07-03T09:19:04.520Z,31.134033
2018-07-03T09:19:22.103Z,31.134033
2018-07-03T09:19:38.605Z,31.433105
2018-07-03T09:19:55.135Z,32.03125
2018-07-03T09:20:11.571Z,32.531738
2018-07-03T09:20:28.151Z,32.434082
2018-07-03T09:20:44.660Z,32.330322
2018-07-03T09:21:01.244Z,32.330322
2018-07-03T09:21:17.850Z,32.629395
2018-07-03T09:21:34.488Z,32.550049
2018-07-03T09:21:58.848Z,32.550049
2018-07-03T09:22:15.355Z,32.647705
2018-07-03T09:22:31.940Z,32.849121
2018-07-03T09:22:48.450Z,32.946777
2018-07-03T09:23:05.015Z,33.044434
2018-07-03T09:23:21.452Z,33.544922
2018-07-03T09:23:38.046Z,33.746338
2018-07-03T09:23:54.576Z,33.24585
2018-07-03T09:24:11.081Z,33.24585
2018-07-03T09:24:27.589Z,32.745361
2018-07-03T09:24:44.169Z,32.348633
2018-07-03T09:25:00.661Z,32.232666
2018-07-03T09:25:25.185Z,32.330322
2018-07-03T09:25:41.708Z,31.835938
2018-07-03T09:25:58.300Z,31.634521
2018-07-03T09:26:14.858Z,32.03125
2018-07-03T09:26:32.317Z,31.732178
2018-07-03T09:26:48.840Z,31.237793
2018-07-03T09:27:05.343Z,31.237793
2018-07-03T09:27:21.935Z,31.134033
2018-07-03T09:27:46.454Z,31.237793
2018-07-03T09:28:02.975Z,31.335449
2018-07-03T09:28:19.500Z,31.634521
2018-07-03T09:28:36.108Z,31.433105
2018-07-03T09:28:52.661Z,32.13501
2018-07-03T09:29:09.196Z,31.036377
2018-07-03T09:29:25.840Z,31.018066
2018-07-03T09:29:44.278Z,30.718994
2018-07-03T09:30:00.812Z,30.609131
2018-07-03T09:30:17.561Z,30.407715
2018-07-03T09:30:34.088Z,30.505371
2018-07-03T09:30:50.568Z,30.609131
2018-07-03T09:31:07.026Z,30.108643
2018-07-03T09:31:23.534Z,30.310059
2018-07-03T09:31:40.054Z,30.108643
2018-07-03T09:31:56.584Z,29.608154
2018-07-03T09:32:13.086Z,29.608154
2018-07-03T09:32:29.658Z,29.907227
2018-07-03T09:32:46.847Z,30.206299
2018-07-03T09:33:03.714Z,30.609131
2018-07-03T09:33:20.233Z,30.407715
2018-07-03T09:33:36.757Z,30.505371
2018-07-03T09:33:55.232Z,30.505371
2018-07-03T09:34:11.744Z,30.407715
2018-07-03T09:34:29.248Z,30.505371
2018-07-03T09:34:45.775Z,29.992676
2018-07-03T09:35:02.291Z,30.010986
2018-07-03T09:35:18.792Z,30.108643
2018-07-03T09:35:35.258Z,29.80957
2018-07-03T09:35:51.766Z,30.194092
2018-07-03T09:36:08.392Z,30.493164
2018-07-03T09:36:24.966Z,30.69458
2018-07-03T09:36:41.530Z,30.69458
2018-07-03T09:36:58.154Z,31.488037
2018-07-03T09:37:14.709Z,31.091309
2018-07-03T09:37:31.322Z,31.091309
2018-07-03T09:37:48.130Z,31.488037
2018-07-03T09:38:04.655Z,30.993652
2018-07-03T09:38:29.128Z,31.091309
2018-07-03T09:38:45.620Z,30.291748
2018-07-03T09:39:02.139Z,29.595947
2018-07-03T09:39:18.624Z,29.608154
2018-07-03T09:39:35.220Z,30.010986
2018-07-03T09:39:51.802Z,29.907227
2018-07-03T09:40:08.421Z,30.310059
2018-07-03T09:40:24.934Z,29.608154
2018-07-03T09:40:41.481Z,30.010986
2018-07-03T09:40:57.998Z,30.206299
2018-07-03T09:41:14.552Z,30.010986
2018-07-03T09:41:31.016Z,29.693604
2018-07-03T09:41:47.545Z,29.382324
2018-07-03T09:42:04.042Z,29.284668
2018-07-03T09:42:20.540Z,29.284668
2018-07-03T09:42:37.031Z,29.284668
2018-07-03T09:42:54.534Z,29.284668
2018-07-03T09:43:11.079Z,28.78418
2018-07-03T09:43:27.581Z,28.686523
2018-07-03T09:43:44.270Z,28.881836
2018-07-03T09:44:00.944Z,28.881836
2018-07-03T09:44:17.590Z,28.387451
2018-07-03T09:44:34.189Z,28.387451
2018-07-03T09:44:50.801Z,28.485107
2018-07-03T09:45:07.389Z,28.485107
2018-07-03T09:45:24.114Z,28.582764
2018-07-03T09:45:40.661Z,28.900146
2018-07-03T09:45:57.310Z,28.796387
2018-07-03T09:46:13.928Z,29.095459
2018-07-03T09:46:30.503Z,28.900146
2018-07-03T09:46:46.991Z,29.095459
2018-07-03T09:47:03.514Z,29.394531
2018-07-03T09:47:19.974Z,29.296875
2018-07-03T09:47:36.497Z,29.693604
2018-07-03T09:47:52.985Z,29.797363
2018-07-03T09:48:09.462Z,30.096436
2018-07-03T09:48:25.957Z,30.493164
2018-07-03T09:48:42.423Z,31.091309
2018-07-03T09:48:59.005Z,30.792236
2018-07-03T09:49:15.620Z,31.292725
2018-07-03T09:49:32.303Z,31.488037
2018-07-03T09:49:48.899Z,31.890869
2018-07-03T09:50:05.627Z,31.787109
2018-07-03T09:50:22.117Z,31.591797
2018-07-03T09:50:38.707Z,30.889893
2018-07-03T09:50:55.323Z,30.792236
2018-07-03T09:51:11.846Z,30.993652
2018-07-03T09:51:28.381Z,31.488037
2018-07-03T09:51:45.001Z,30.493164
2018-07-03T09:52:01.510Z,29.693604
2018-07-03T09:52:18.551Z,29.296875
2018-07-03T09:52:35.696Z,29.89502
2018-07-03T09:52:52.146Z,29.89502
2018-07-03T09:53:08.666Z,30.096436
2018-07-03T09:53:25.211Z,30.096436
2018-07-03T09:53:42.068Z,30.096436
2018-07-03T09:53:58.614Z,30.395508
2018-07-03T09:54:15.184Z,29.296875
2018-07-03T09:54:31.713Z,29.296875
2018-07-03T09:54:57.402Z,29.980469
2018-07-03T09:55:22.866Z,31.390381
2018-07-03T09:55:39.387Z,30.395508
2018-07-03T09:55:55.942Z,30.096436
2018-07-03T09:56:12.500Z,30.096436
2018-07-03T09:56:29.175Z,29.89502
2018-07-03T09:56:45.688Z,29.797363
2018-07-03T09:57:02.497Z,30.291748
2018-07-03T09:57:19.019Z,29.89502
2018-07-03T09:57:35.505Z,29.992676
2018-07-03T09:57:52.111Z,29.89502
2018-07-03T09:58:08.528Z,29.681396
2018-07-03T09:58:25.045Z,29.882812
2018-07-03T09:58:49.434Z,29.382324
2018-07-03T09:59:06.032Z,29.266357
2018-07-03T09:59:22.944Z,29.266357
2018-07-03T09:59:39.460Z,29.382324
2018-07-03T09:59:55.977Z,28.78418
2018-07-03T10:00:12.614Z,28.686523
2018-07-03T10:00:29.162Z,28.967285
2018-07-03T10:00:45.798Z,29.284668
2018-07-03T10:01:02.334Z,29.180908
2018-07-03T10:01:18.843Z,29.083252
2018-07-03T10:01:35.338Z,29.681396
2018-07-03T10:01:51.857Z,29.382324
2018-07-03T10:02:08.522Z,29.681396
2018-07-03T10:02:25.019Z,29.882812
2018-07-03T10:02:41.535Z,29.779053
2018-07-03T10:02:58.000Z,29.47998
2018-07-03T10:03:14.519Z,29.284668
2018-07-03T10:03:31.084Z,29.180908
2018-07-03T10:03:47.573Z,29.083252
2018-07-03T10:04:04.089Z,28.881836
2018-07-03T10:04:20.611Z,29.083252
2018-07-03T10:04:37.104Z,29.382324
2018-07-03T10:04:53.648Z,29.47998
2018-07-03T10:05:10.160Z,29.681396
2018-07-03T10:05:26.639Z,29.382324
2018-07-03T10:05:43.115Z,29.882812
2018-07-03T10:05:59.657Z,29.58374
2018-07-03T10:06:16.114Z,29.47998
2018-07-03T10:06:32.628Z,29.882812
2018-07-03T10:06:49.140Z,30.279541
2018-07-03T10:07:05.641Z,30.078125
2018-07-03T10:07:22.134Z,29.980469
2018-07-03T10:07:38.742Z,30.078125
2018-07-03T10:07:55.363Z,30.181885
2018-07-03T10:08:12.127Z,29.882812
2018-07-03T10:08:28.630Z,30.181885
2018-07-03T10:08:45.131Z,29.980469
2018-07-03T10:09:01.635Z,29.58374
2018-07-03T10:09:18.151Z,29.58374
2018-07-03T10:09:34.630Z,29.681396
2018-07-03T10:09:51.136Z,29.882812
2018-07-03T10:10:07.626Z,29.779053
2018-07-03T10:10:24.107Z,30.181885
2018-07-03T10:10:40.585Z,30.078125